createdAt,value
2019-03-16T00:01:25.422Z,1.20
2019-03-16T00:03:56.331Z,1.73
2019-03-16T00:06:27.219Z,1.40
2019-03-16T00:08:59.154Z,1.30
2019-03-16T00:11:30.032Z,1.90
2019-03-16T00:14:00.949Z,1.80
2019-03-16T00:16:31.827Z,1.40
2019-03-16T00:19:02.743Z,1.27
2019-03-16T00:21:33.623Z,1.93
2019-03-16T00:24:05.502Z,2.07
2019-03-16T00:26:36.381Z,2.50
2019-03-16T00:29:07.325Z,2.40
2019-03-16T00:31:38.205Z,2.03
2019-03-16T00:34:09.115Z,2.53
2019-03-16T00:36:40.003Z,7.27
2019-03-16T00:39:10.929Z,21.53
2019-03-16T00:41:41.914Z,32.50
2019-03-16T00:44:12.836Z,27.00
2019-03-16T00:46:43.729Z,32.73
2019-03-16T00:49:14.650Z,29.73
2019-03-16T00:51:45.615Z,21.30
2019-03-16T00:54:16.568Z,16.00
2019-03-16T00:56:47.452Z,26.27
2019-03-16T00:59:18.505Z,27.57
2019-03-16T01:01:49.398Z,63.73
2019-03-16T01:04:20.328Z,87.47
2019-03-16T01:06:51.227Z,78.20
2019-03-16T01:09:23.042Z,21.90
2019-03-16T01:11:53.992Z,5.93
2019-03-16T01:14:24.984Z,2.60
2019-03-16T01:16:55.973Z,2.10
2019-03-16T01:19:26.886Z,1.90
2019-03-16T01:21:57.774Z,1.67
2019-03-16T01:24:28.696Z,2.03
2019-03-16T01:26:59.582Z,2.07
2019-03-16T01:29:30.424Z,2.93
2019-03-16T01:32:01.307Z,2.10
2019-03-16T01:34:32.206Z,2.50
2019-03-16T01:37:03.083Z,1.60
2019-03-16T01:39:41.268Z,1.90
2019-03-16T01:42:12.135Z,1.83
2019-03-16T01:44:43.047Z,1.70
2019-03-16T01:47:13.928Z,1.67
2019-03-16T01:49:44.840Z,1.50
2019-03-16T01:52:15.726Z,1.90
2019-03-16T01:54:47.510Z,2.20
2019-03-16T01:57:18.393Z,2.13
2019-03-16T01:59:49.307Z,2.00
2019-03-16T02:02:20.181Z,2.20
2019-03-16T02:04:51.100Z,1.60
2019-03-16T02:07:21.987Z,1.33
2019-03-16T02:09:52.914Z,1.67
2019-03-16T02:12:23.862Z,2.10
2019-03-16T02:14:54.786Z,1.93
2019-03-16T02:17:26.438Z,1.70
2019-03-16T02:19:59.301Z,1.43
2019-03-16T02:22:30.187Z,1.33
2019-03-16T02:25:01.188Z,1.37
2019-03-16T02:27:32.070Z,1.50
2019-03-16T02:30:02.929Z,1.00
2019-03-16T02:32:33.795Z,1.40
2019-03-16T02:35:06.499Z,1.20
2019-03-16T02:37:37.386Z,1.13
2019-03-16T02:40:10.476Z,1.10
2019-03-16T02:42:42.940Z,1.20
2019-03-16T02:45:13.853Z,1.10
2019-03-16T02:47:44.749Z,1.27
2019-03-16T02:50:15.762Z,1.20
2019-03-16T02:52:49.807Z,1.30
2019-03-16T02:55:19.257Z,1.07
2019-03-16T02:57:50.165Z,1.10
2019-03-16T03:00:21.051Z,1.20
2019-03-16T03:02:51.931Z,1.30
2019-03-16T03:05:22.844Z,1.40
2019-03-16T03:07:53.730Z,1.10
2019-03-16T03:10:25.504Z,0.87
2019-03-16T03:12:56.379Z,1.33
2019-03-16T03:15:27.362Z,1.33
2019-03-16T03:17:59.205Z,1.10
2019-03-16T03:20:30.159Z,1.10
2019-03-16T03:23:01.018Z,1.30
2019-03-16T03:25:32.176Z,1.20
2019-03-16T03:28:03.047Z,1.60
2019-03-16T03:30:33.964Z,1.43
2019-03-16T03:33:04.863Z,1.60
2019-03-16T03:35:35.762Z,1.50
2019-03-16T03:38:06.647Z,1.80
2019-03-16T03:40:37.565Z,1.40
2019-03-16T03:43:08.437Z,1.90
2019-03-16T03:45:39.366Z,1.40
2019-03-16T03:48:10.250Z,1.40
2019-03-16T03:50:41.164Z,1.70
2019-03-16T03:53:12.057Z,1.80
2019-03-16T03:55:43.844Z,1.87
2019-03-16T03:58:14.920Z,1.60
2019-03-16T04:00:45.832Z,1.70
2019-03-16T04:03:16.717Z,1.80
2019-03-16T04:05:47.629Z,1.33
2019-03-16T04:08:18.502Z,2.00
2019-03-16T04:10:49.429Z,2.30
2019-03-16T04:13:20.304Z,1.80
2019-03-16T04:15:51.217Z,1.70
2019-03-16T04:18:23.197Z,1.80
2019-03-16T04:20:54.096Z,1.80
2019-03-16T04:23:25.000Z,1.70
2019-03-16T04:25:57.580Z,1.80
2019-03-16T04:28:28.451Z,1.70
2019-03-16T04:30:59.369Z,1.83
2019-03-16T04:33:30.250Z,1.73
2019-03-16T04:36:01.166Z,1.70
2019-03-16T04:38:32.048Z,3.90
2019-03-16T04:41:03.825Z,2.07
2019-03-16T04:43:34.699Z,2.10
2019-03-16T04:46:05.597Z,2.13
2019-03-16T04:48:36.471Z,2.00
2019-03-16T04:51:07.378Z,2.20
2019-03-16T04:53:38.267Z,2.07
2019-03-16T04:56:09.196Z,2.23
2019-03-16T04:58:40.082Z,2.30
2019-03-16T05:01:10.989Z,2.37
2019-03-16T05:03:41.881Z,2.00
2019-03-16T05:06:12.794Z,2.07
2019-03-16T05:08:49.293Z,2.70
2019-03-16T05:11:20.242Z,2.13
2019-03-16T05:13:54.523Z,2.00
2019-03-16T05:16:25.457Z,1.93
2019-03-16T05:18:56.345Z,2.17
2019-03-16T05:21:27.246Z,3.00
2019-03-16T05:23:58.122Z,2.83
2019-03-16T05:26:29.990Z,2.13
2019-03-16T05:29:00.942Z,2.10
2019-03-16T05:31:31.848Z,2.40
2019-03-16T05:34:02.720Z,2.80
2019-03-16T05:36:33.622Z,1.93
2019-03-16T05:39:06.406Z,2.00
2019-03-16T05:41:38.334Z,2.07
2019-03-16T05:44:09.211Z,1.87
2019-03-16T05:46:40.117Z,2.00
2019-03-16T05:49:11.076Z,2.37
2019-03-16T05:51:41.995Z,2.00
2019-03-16T05:54:12.868Z,2.40
2019-03-16T05:56:44.691Z,2.60
2019-03-16T05:59:15.577Z,2.17
2019-03-16T06:01:46.487Z,2.50
2019-03-16T06:04:17.377Z,4.03
2019-03-16T06:06:48.283Z,4.40
2019-03-16T06:09:19.240Z,2.13
2019-03-16T06:11:50.170Z,2.33
2019-03-16T06:14:21.110Z,2.93
2019-03-16T06:16:52.019Z,3.17
2019-03-16T06:19:23.783Z,8.07
2019-03-16T06:21:54.783Z,17.47
2019-03-16T06:24:28.148Z,16.20
2019-03-16T06:26:59.340Z,13.83
2019-03-16T06:29:30.252Z,8.97
2019-03-16T06:32:01.158Z,10.37
2019-03-16T06:34:32.053Z,10.73
2019-03-16T06:37:02.990Z,11.43
2019-03-16T06:39:33.873Z,15.20
2019-03-16T06:42:12.242Z,14.80
2019-03-16T06:44:43.946Z,12.37
2019-03-16T06:47:14.891Z,19.10
2019-03-16T06:49:45.819Z,16.97
2019-03-16T06:52:16.776Z,14.77
2019-03-16T06:54:47.698Z,10.23
2019-03-16T06:57:19.559Z,16.00
2019-03-16T06:59:50.504Z,13.57
2019-03-16T07:02:21.475Z,7.70
2019-03-16T07:04:52.394Z,8.63
2019-03-16T07:07:25.944Z,7.97
2019-03-16T07:09:56.880Z,9.90
2019-03-16T07:12:27.858Z,8.30
2019-03-16T07:14:58.849Z,11.67
2019-03-16T07:17:29.803Z,7.13
2019-03-16T07:20:00.741Z,5.30
2019-03-16T07:22:31.661Z,4.40
2019-03-16T07:25:02.733Z,3.63
2019-03-16T07:27:33.800Z,2.83
2019-03-16T07:30:07.091Z,6.17
2019-03-16T07:32:38.008Z,7.10
2019-03-16T07:35:09.104Z,7.27
2019-03-16T07:37:40.014Z,6.77
2019-03-16T07:40:14.600Z,12.37
2019-03-16T07:42:45.560Z,2.93
2019-03-16T07:45:17.750Z,9.43
2019-03-16T07:47:49.691Z,8.93
2019-03-16T07:50:21.947Z,8.90
2019-03-16T07:52:54.734Z,5.33
2019-03-16T07:55:26.767Z,2.70
2019-03-16T07:58:00.188Z,5.97
2019-03-16T08:00:33.169Z,11.83
2019-03-16T08:03:05.815Z,9.27
2019-03-16T08:05:38.283Z,5.20
2019-03-16T08:08:09.606Z,5.60
2019-03-16T08:10:41.934Z,6.20
2019-03-16T08:13:14.502Z,6.60
2019-03-16T08:15:45.501Z,10.43
2019-03-16T08:18:16.526Z,5.77
2019-03-16T08:20:47.485Z,6.37
2019-03-16T08:23:19.193Z,9.27
2019-03-16T08:25:50.083Z,9.40
2019-03-16T08:28:21.818Z,10.17
2019-03-16T08:30:52.716Z,8.93
2019-03-16T08:33:23.633Z,4.97
2019-03-16T08:35:54.513Z,2.60
2019-03-16T08:38:25.496Z,2.70
2019-03-16T08:40:56.386Z,6.57
2019-03-16T08:43:28.163Z,3.97
2019-03-16T08:45:59.070Z,3.33
2019-03-16T08:48:30.083Z,4.70
2019-03-16T08:51:00.978Z,4.37
2019-03-16T08:53:31.924Z,4.90
2019-03-16T08:56:02.845Z,8.80
2019-03-16T08:58:34.627Z,6.03
2019-03-16T09:01:05.614Z,3.20
2019-03-16T09:03:43.603Z,4.67
2019-03-16T09:06:09.233Z,5.10
2019-03-16T09:08:40.162Z,3.43
2019-03-16T09:11:11.090Z,5.80
2019-03-16T09:13:42.923Z,4.20
2019-03-16T09:16:17.153Z,12.27
2019-03-16T09:18:48.081Z,11.30
2019-03-16T09:21:19.748Z,17.10
2019-03-16T09:23:50.668Z,7.70
2019-03-16T09:26:21.563Z,8.17
2019-03-16T09:29:10.295Z,7.93
2019-03-16T09:31:34.828Z,2.83
2019-03-16T09:34:05.745Z,2.50
2019-03-16T09:36:36.623Z,3.77
2019-03-16T09:39:08.037Z,4.60
2019-03-16T09:41:38.941Z,3.53
2019-03-16T09:44:09.911Z,2.80
2019-03-16T09:46:40.792Z,2.77
2019-03-16T09:49:11.704Z,3.50
2019-03-16T09:51:42.593Z,3.57
2019-03-16T09:54:13.514Z,6.80
2019-03-16T09:56:44.476Z,8.53
2019-03-16T09:59:16.214Z,6.20
2019-03-16T10:01:47.183Z,3.27
2019-03-16T10:04:18.991Z,3.90
2019-03-16T10:06:49.868Z,5.13
2019-03-16T10:09:20.825Z,9.07
2019-03-16T10:11:51.725Z,13.57
2019-03-16T10:14:23.570Z,8.20
2019-03-16T10:16:54.466Z,9.20
2019-03-16T10:19:25.448Z,7.20
2019-03-16T10:21:57.222Z,5.50
2019-03-16T10:24:28.147Z,7.83
2019-03-16T10:26:59.121Z,6.07
2019-03-16T10:29:31.158Z,6.40
2019-03-16T10:32:02.040Z,4.10
2019-03-16T10:34:32.981Z,4.20
2019-03-16T10:37:03.946Z,3.50
2019-03-16T10:39:34.853Z,2.43
2019-03-16T10:42:05.775Z,2.10
2019-03-16T10:44:40.411Z,4.13
2019-03-16T10:47:12.154Z,3.60
2019-03-16T10:49:43.078Z,3.23
2019-03-16T10:52:13.973Z,3.63
2019-03-16T10:54:44.890Z,3.63
2019-03-16T10:57:15.775Z,3.23
2019-03-16T10:59:46.888Z,3.30
2019-03-16T11:02:19.822Z,2.80
2019-03-16T11:04:50.751Z,2.90
2019-03-16T11:07:21.634Z,2.90
2019-03-16T11:09:52.625Z,5.47
2019-03-16T11:12:24.948Z,3.17
2019-03-16T11:14:56.646Z,2.40
2019-03-16T11:17:27.540Z,3.47
2019-03-16T11:19:58.471Z,3.30
2019-03-16T11:22:30.138Z,3.70
2019-03-16T11:25:01.060Z,3.23
2019-03-16T11:27:32.014Z,3.43
2019-03-16T11:30:03.923Z,2.67
2019-03-16T11:32:34.826Z,5.37
2019-03-16T11:35:08.225Z,3.60
2019-03-16T11:37:39.125Z,3.80
2019-03-16T11:40:19.629Z,3.20
2019-03-16T11:42:50.603Z,4.93
2019-03-16T11:45:21.648Z,6.43
2019-03-16T11:47:52.550Z,9.93
2019-03-16T11:50:23.476Z,7.60
2019-03-16T11:52:54.377Z,5.10
2019-03-16T11:55:25.916Z,7.17
2019-03-16T11:57:56.856Z,8.17
2019-03-16T12:00:27.819Z,3.73
2019-03-16T12:02:58.728Z,3.40
2019-03-16T12:05:29.683Z,3.37
2019-03-16T12:08:00.603Z,4.77
2019-03-16T12:10:31.530Z,7.97
2019-03-16T12:13:02.580Z,5.60
2019-03-16T12:15:34.370Z,6.77
2019-03-16T12:18:05.388Z,5.07
2019-03-16T12:20:36.407Z,4.97
2019-03-16T12:23:08.226Z,7.30
2019-03-16T12:25:39.198Z,9.57
2019-03-16T12:28:10.188Z,8.67
2019-03-16T12:30:41.257Z,11.30
2019-03-16T12:33:12.206Z,9.97
2019-03-16T12:35:43.160Z,7.90
2019-03-16T12:38:14.080Z,6.30
2019-03-16T12:40:45.955Z,4.27
2019-03-16T12:43:16.977Z,5.70
2019-03-16T12:45:48.818Z,7.63
2019-03-16T12:48:19.757Z,5.30
2019-03-16T12:50:54.396Z,7.73
2019-03-16T12:53:23.319Z,6.33
2019-03-16T12:55:54.247Z,6.00
2019-03-16T12:58:25.139Z,5.30
2019-03-16T13:00:56.155Z,5.87
2019-03-16T13:03:27.078Z,7.27
2019-03-16T13:05:58.017Z,14.57
2019-03-16T13:08:28.916Z,14.77
2019-03-16T13:10:59.849Z,28.80
2019-03-16T13:13:30.893Z,10.10
2019-03-16T13:16:01.939Z,6.07
2019-03-16T13:18:32.839Z,5.00
2019-03-16T13:21:03.769Z,5.43
2019-03-16T13:23:37.047Z,9.13
2019-03-16T13:26:07.975Z,5.20
2019-03-16T13:28:38.883Z,8.20
2019-03-16T13:31:09.890Z,3.77
2019-03-16T13:33:40.791Z,6.80
2019-03-16T13:36:12.031Z,4.17
2019-03-16T13:38:42.948Z,7.03
2019-03-16T13:41:13.871Z,7.10
2019-03-16T13:43:44.774Z,6.20
2019-03-16T13:46:17.415Z,5.70
2019-03-16T13:48:48.317Z,4.97
2019-03-16T13:51:19.289Z,7.77
2019-03-16T13:53:53.663Z,6.70
2019-03-16T13:56:24.703Z,4.83
2019-03-16T13:58:56.085Z,6.93
2019-03-16T14:01:27.201Z,8.73
2019-03-16T14:03:58.203Z,8.00
2019-03-16T14:06:29.156Z,7.63
2019-03-16T14:09:00.285Z,7.07
2019-03-16T14:11:31.236Z,11.43
2019-03-16T14:14:02.255Z,7.23
2019-03-16T14:16:34.189Z,5.37
2019-03-16T14:19:05.498Z,9.53
2019-03-16T14:21:36.675Z,7.70
2019-03-16T14:24:09.347Z,4.80
2019-03-16T14:26:42.642Z,6.83
2019-03-16T14:29:13.099Z,7.22
2019-03-16T14:31:44.050Z,4.67
2019-03-16T14:34:15.075Z,7.50
2019-03-16T14:36:46.023Z,7.87
2019-03-16T14:39:17.012Z,7.37
2019-03-16T14:41:47.970Z,6.10
2019-03-16T14:44:18.947Z,6.77
2019-03-16T14:46:49.920Z,5.10
2019-03-16T14:49:20.998Z,7.87
2019-03-16T14:51:51.949Z,5.40
2019-03-16T14:54:22.915Z,4.10
2019-03-16T14:56:53.846Z,5.70
2019-03-16T14:59:27.460Z,5.90
2019-03-16T15:01:59.207Z,6.50
2019-03-16T15:04:30.116Z,4.60
2019-03-16T15:07:01.077Z,8.30
2019-03-16T15:09:34.064Z,10.40
2019-03-16T15:12:08.391Z,5.23
2019-03-16T15:14:39.322Z,4.73
2019-03-16T15:17:10.420Z,11.50
2019-03-16T15:19:41.327Z,10.73
2019-03-16T15:22:12.426Z,8.27
2019-03-16T15:24:45.219Z,9.33
2019-03-16T15:27:16.154Z,13.73
2019-03-16T15:29:47.032Z,20.93
2019-03-16T15:32:18.375Z,52.90
2019-03-16T15:34:49.280Z,24.87
2019-03-16T15:37:20.246Z,24.07
2019-03-16T15:39:51.145Z,13.63
2019-03-16T15:42:22.920Z,11.87
2019-03-16T15:44:53.984Z,10.33
2019-03-16T15:47:24.963Z,13.77
2019-03-16T15:49:58.431Z,10.70
2019-03-16T15:52:30.446Z,9.70
2019-03-16T15:55:03.770Z,10.60
2019-03-16T15:57:34.724Z,10.43
2019-03-16T16:00:08.953Z,13.07
2019-03-16T16:02:40.779Z,11.00
2019-03-16T16:05:11.853Z,15.70
2019-03-16T16:07:42.904Z,23.03
2019-03-16T16:10:18.428Z,16.30
2019-03-16T16:12:49.427Z,12.87
2019-03-16T16:15:24.897Z,17.00
2019-03-16T16:17:56.741Z,16.53
2019-03-16T16:20:27.704Z,11.87
2019-03-16T16:22:58.819Z,15.10
2019-03-16T16:25:32.165Z,13.87
2019-03-16T16:28:03.241Z,15.10
2019-03-16T16:30:36.798Z,12.10
2019-03-16T16:33:08.583Z,12.27
2019-03-16T16:35:39.600Z,12.10
2019-03-16T16:38:10.610Z,9.70
2019-03-16T16:40:41.557Z,14.20
2019-03-16T16:43:12.649Z,19.30
2019-03-16T16:45:46.576Z,18.87
2019-03-16T16:48:18.066Z,18.03
2019-03-16T16:50:49.064Z,25.07
2019-03-16T16:53:20.109Z,19.17
2019-03-16T16:55:51.070Z,19.63
2019-03-16T16:58:22.953Z,23.63
2019-03-16T17:00:53.886Z,14.30
2019-03-16T17:03:24.893Z,13.53
2019-03-16T17:05:55.855Z,17.13
2019-03-16T17:08:26.843Z,19.93
2019-03-16T17:10:57.804Z,19.93
2019-03-16T17:13:28.810Z,19.93
2019-03-16T17:15:59.929Z,17.00
2019-03-16T17:18:31.797Z,19.50
2019-03-16T17:21:02.829Z,23.00
2019-03-16T17:23:34.628Z,20.43
2019-03-16T17:26:06.381Z,17.03
2019-03-16T17:28:37.425Z,15.87
2019-03-16T17:31:11.130Z,21.30
2019-03-16T17:33:42.140Z,119.33
2019-03-16T17:36:13.075Z,143.73
2019-03-16T17:38:44.099Z,137.57
2019-03-16T17:41:15.131Z,254.80
2019-03-16T17:43:46.247Z,273.30
2019-03-16T17:46:17.206Z,245.37
2019-03-16T17:48:48.215Z,183.27
2019-03-16T17:51:19.254Z,80.87
2019-03-16T17:53:50.219Z,47.47
2019-03-16T17:56:21.208Z,42.07
2019-03-16T17:58:55.606Z,38.33
2019-03-16T18:01:26.607Z,71.70
2019-03-16T18:03:58.438Z,110.20
2019-03-16T18:06:29.411Z,64.87
2019-03-16T18:09:01.847Z,40.43
2019-03-16T18:11:33.524Z,40.33
2019-03-16T18:14:04.543Z,56.63
2019-03-16T18:16:35.562Z,41.53
2019-03-16T18:19:07.424Z,36.37
2019-03-16T18:21:38.455Z,29.23
2019-03-16T18:24:09.528Z,28.27
2019-03-16T18:26:42.126Z,34.27
2019-03-16T18:29:13.096Z,43.67
2019-03-16T18:31:44.332Z,28.10
2019-03-16T18:34:17.097Z,22.37
2019-03-16T18:36:48.098Z,21.90
2019-03-16T18:39:19.110Z,22.47
2019-03-16T18:41:50.128Z,22.23
2019-03-16T18:44:21.150Z,20.87
2019-03-16T18:46:52.095Z,27.23
2019-03-16T18:49:23.963Z,28.87
2019-03-16T18:51:54.976Z,24.33
2019-03-16T18:54:26.037Z,30.73
2019-03-16T18:56:57.048Z,29.80
2019-03-16T18:59:28.156Z,42.13
2019-03-16T19:01:59.111Z,47.77
2019-03-16T19:04:31.157Z,38.43
2019-03-16T19:07:02.200Z,64.00
2019-03-16T19:09:33.210Z,50.07
2019-03-16T19:12:04.258Z,108.50
2019-03-16T19:14:35.344Z,135.03
2019-03-16T19:17:06.313Z,103.17
2019-03-16T19:19:37.435Z,33.83
2019-03-16T19:22:11.408Z,19.27
2019-03-16T19:24:41.049Z,19.53
2019-03-16T19:27:12.963Z,17.33
2019-03-16T19:29:43.921Z,18.83
2019-03-16T19:32:17.153Z,12.30
2019-03-16T19:34:49.296Z,20.87
2019-03-16T19:37:21.358Z,24.77
2019-03-16T19:39:52.642Z,16.40
2019-03-16T19:42:23.596Z,14.93
2019-03-16T19:44:54.576Z,16.13
2019-03-16T19:47:25.507Z,12.13
2019-03-16T19:49:57.553Z,13.00
2019-03-16T19:52:28.582Z,15.53
2019-03-16T19:54:59.814Z,16.37
2019-03-16T19:57:30.929Z,22.50
2019-03-16T20:00:01.968Z,26.00
2019-03-16T20:02:45.775Z,32.53
2019-03-16T20:05:08.296Z,25.07
2019-03-16T20:07:39.343Z,19.10
2019-03-16T20:10:13.134Z,16.43
2019-03-16T20:12:44.158Z,15.97
2019-03-16T20:15:21.018Z,16.33
2019-03-16T20:17:51.976Z,15.50
2019-03-16T20:20:23.863Z,15.33
2019-03-16T20:22:54.802Z,23.97
2019-03-16T20:25:25.767Z,67.70
2019-03-16T20:27:58.476Z,65.17
2019-03-16T20:30:33.073Z,76.93
2019-03-16T20:33:06.454Z,81.63
2019-03-16T20:35:43.158Z,90.90
2019-03-16T20:38:15.978Z,87.47
2019-03-16T20:40:49.987Z,83.30
2019-03-16T20:50:40.832Z,92.17
2019-03-16T21:00:42.166Z,45.13
2019-03-16T21:03:59.627Z,62.23
2019-03-16T21:07:19.228Z,55.50
2019-03-16T21:16:40.221Z,38.23
2019-03-16T21:19:53.268Z,58.10
2019-03-16T21:22:54.009Z,27.53
2019-03-16T21:25:58.250Z,27.97
2019-03-16T21:31:56.377Z,28.33
2019-03-16T21:34:53.554Z,21.33
2019-03-16T21:37:24.288Z,22.87
2019-03-16T21:44:58.791Z,39.97
2019-03-16T21:49:45.282Z,33.90
2019-03-16T21:52:34.599Z,23.90
2019-03-16T22:21:08.863Z,79.67
2019-03-16T22:23:50.955Z,80.20
2019-03-16T22:29:43.246Z,77.47
2019-03-16T22:32:14.697Z,58.67
2019-03-16T22:34:45.912Z,59.13
2019-03-16T22:37:17.947Z,65.07
2019-03-16T22:39:51.568Z,60.77
2019-03-16T22:42:22.742Z,58.47
2019-03-16T22:45:07.742Z,51.17
2019-03-16T22:48:01.434Z,26.37
2019-03-16T22:57:27.790Z,19.93
2019-03-16T23:00:13.370Z,19.47
2019-03-16T23:06:11.160Z,32.23
2019-03-16T23:11:59.960Z,19.50
2019-03-16T23:17:28.781Z,14.50
2019-03-16T23:20:05.477Z,9.33
2019-03-16T23:22:53.538Z,7.53
2019-03-16T23:25:37.081Z,7.23
2019-03-16T23:28:16.049Z,6.57
2019-03-16T23:30:53.868Z,6.47
2019-03-16T23:33:34.477Z,10.40
2019-03-16T23:36:10.024Z,7.67
2019-03-16T23:38:41.211Z,8.27
2019-03-16T23:41:12.253Z,7.00
2019-03-16T23:43:43.283Z,8.60
2019-03-16T23:46:14.287Z,6.43
2019-03-16T23:48:45.258Z,6.53
2019-03-16T23:51:16.298Z,5.70
2019-03-16T23:53:47.215Z,5.47
2019-03-16T23:56:18.349Z,5.67
2019-03-16T23:58:49.427Z,5.17
